Time;durP1;ratioP1;P1;durP2;ratioP2;P2;SDS_P1;SDS_P2;PMS_P1;PMS_P2;Temp;Humidity;BMP_temperature;BMP_pressure;BME280_temperature;BME280_humidity;BME280_pressure;Samples;Min_cycle;Max_cycle;Signal;HPM_P1;HPM_P2
2022/04/12 00:01:42;;;;;;;4.35;3.08;;;6.40;99.90;;;;;;5114963;27;20155;-70
2022/04/12 00:04:07;;;;;;;7.43;3.42;;;6.40;99.90;;;;;;5114423;27;20041;-70
2022/04/12 00:06:33;;;;;;;5.05;2.45;;;6.40;99.90;;;;;;5106705;27;20435;-70
2022/04/12 00:08:58;;;;;;;5.55;3.25;;;6.30;99.90;;;;;;5108655;27;20397;-70
2022/04/12 00:11:25;;;;;;;5.57;2.95;;;6.40;99.90;;;;;;5116871;27;20039;-70
2022/04/12 00:13:51;;;;;;;4.72;2.80;;;6.30;99.90;;;;;;5135704;27;20047;-70
2022/04/12 00:16:16;;;;;;;5.60;3.25;;;6.30;99.90;;;;;;5115805;27;20108;-70
2022/04/12 00:21:26;;;;;;;7.65;3.05;;;6.20;99.90;;;;;;5135419;27;20126;-70
2022/04/12 00:23:51;;;;;;;7.15;3.33;;;6.20;99.90;;;;;;5134599;27;20119;-70
2022/04/12 00:26:17;;;;;;;6.97;3.20;;;6.20;99.90;;;;;;5134877;27;20040;-70
2022/04/12 00:28:43;;;;;;;6.32;3.13;;;6.20;99.90;;;;;;5135440;27;20046;-70
2022/04/12 00:31:09;;;;;;;6.22;2.65;;;6.20;99.90;;;;;;5134300;27;20039;-70
2022/04/12 00:33:35;;;;;;;4.43;3.20;;;6.20;99.90;;;;;;5135227;27;20043;-70
2022/04/12 00:36:02;;;;;;;6.18;3.42;;;6.20;99.90;;;;;;5116026;27;20405;-70
2022/04/12 00:38:33;;;;;;;4.72;3.67;;;6.10;99.90;;;;;;5133153;27;20049;-70
2022/04/12 00:41:01;;;;;;;7.97;3.97;;;6.10;99.90;;;;;;5134842;27;20078;-70
2022/04/12 00:43:29;;;;;;;4.10;3.22;;;6.10;99.90;;;;;;5116444;27;20078;-70
2022/04/12 00:46:00;;;;;;;4.60;3.28;;;6.10;99.90;;;;;;5134850;27;20047;-70
2022/04/12 00:48:29;;;;;;;5.65;3.88;;;6.00;99.90;;;;;;5135074;27;20086;-70
2022/04/12 00:50:55;;;;;;;5.15;3.78;;;6.00;99.90;;;;;;5133575;27;20051;-71
2022/04/12 00:53:21;;;;;;;4.00;3.42;;;6.00;99.90;;;;;;5116218;27;20047;-70
2022/04/12 00:55:47;;;;;;;4.25;3.00;;;6.00;99.90;;;;;;5134810;27;20039;-70
2022/04/12 00:58:13;;;;;;;7.88;3.80;;;6.00;99.90;;;;;;5133927;27;20369;-70
2022/04/12 01:00:39;;;;;;;4.45;2.88;;;6.00;99.90;;;;;;5134600;27;20042;-70
2022/04/12 01:03:04;;;;;;;6.60;4.00;;;5.90;99.90;;;;;;5134243;27;20035;-69
2022/04/12 01:05:30;;;;;;;5.22;3.10;;;5.90;99.90;;;;;;5115419;27;20051;-70
2022/04/12 01:07:56;;;;;;;5.57;3.22;;;5.90;99.90;;;;;;5115662;27;20035;-70
2022/04/12 01:10:23;;;;;;;7.30;3.33;;;5.90;99.90;;;;;;5116169;27;20103;-70
2022/04/12 01:12:53;;;;;;;9.43;3.88;;;5.90;99.90;;;;;;5115402;27;20431;-70
2022/04/12 01:15:22;;;;;;;6.05;3.63;;;5.80;99.90;;;;;;5134122;27;20050;-71
2022/04/12 01:17:48;;;;;;;6.13;3.78;;;5.80;99.90;;;;;;5134343;27;20080;-71
2022/04/12 01:20:17;;;;;;;7.28;4.40;;;5.70;99.90;;;;;;5114711;27;20969;-70
2022/04/12 01:22:51;;;;;;;6.93;3.88;;;5.70;99.90;;;;;;5115912;27;20039;-70
2022/04/12 01:25:18;;;;;;;6.43;3.30;;;5.70;99.90;;;;;;5115477;27;20051;-69
2022/04/12 01:27:44;;;;;;;4.57;3.75;;;5.70;99.90;;;;;;5114719;27;20051;-70
2022/04/12 01:30:10;;;;;;;7.13;4.50;;;5.60;99.90;;;;;;5132776;27;20051;-70
2022/04/12 01:32:35;;;;;;;7.43;4.50;;;5.60;99.90;;;;;;5133864;27;20050;-70
2022/04/12 01:35:01;;;;;;;5.00;4.00;;;5.60;99.90;;;;;;5132661;27;20402;-70
2022/04/12 01:37:27;;;;;;;6.10;3.65;;;5.50;99.90;;;;;;5134047;27;20065;-70
2022/04/12 01:39:52;;;;;;;5.47;4.10;;;5.50;99.90;;;;;;5133179;27;20039;-70
2022/04/12 01:42:18;;;;;;;5.97;3.85;;;5.50;99.90;;;;;;5133519;27;20050;-70
2022/04/12 01:44:43;;;;;;;7.78;4.55;;;5.50;99.90;;;;;;5115696;27;20057;-69
2022/04/12 01:47:09;;;;;;;7.75;4.22;;;5.50;99.90;;;;;;5114297;27;20043;-70
2022/04/12 01:49:34;;;;;;;6.05;4.07;;;5.40;99.90;;;;;;5133339;27;20130;-70
2022/04/12 01:52:03;;;;;;;7.28;4.40;;;5.40;99.90;;;;;;5114666;27;20051;-70
2022/04/12 01:54:29;;;;;;;8.75;4.95;;;5.40;99.90;;;;;;5114260;27;20550;-70
2022/04/12 01:56:55;;;;;;;5.75;4.15;;;5.40;99.90;;;;;;5133381;27;20047;-70
2022/04/12 01:59:22;;;;;;;6.70;4.18;;;5.30;99.90;;;;;;5133478;27;20462;-70
2022/04/12 02:01:48;;;;;;;8.95;4.63;;;5.30;99.90;;;;;;5114098;27;20047;-70
2022/04/12 02:04:13;;;;;;;6.68;3.72;;;5.30;99.90;;;;;;5133644;27;20116;-70
2022/04/12 02:06:39;;;;;;;7.50;4.60;;;5.30;99.90;;;;;;5115028;27;20077;-70
2022/04/12 02:09:04;;;;;;;5.25;3.90;;;5.30;99.90;;;;;;5113523;27;20090;-70
2022/04/12 02:11:30;;;;;;;5.28;4.40;;;5.30;99.90;;;;;;5115104;27;20046;-70
2022/04/12 02:13:55;;;;;;;7.00;5.10;;;5.20;99.90;;;;;;5133055;27;20122;-70
2022/04/12 02:16:23;;;;;;;7.32;4.78;;;5.20;99.90;;;;;;5114058;27;20039;-70
2022/04/12 02:18:48;;;;;;;6.90;4.30;;;5.20;99.90;;;;;;5114849;27;20051;-70
2022/04/12 02:21:14;;;;;;;9.63;4.70;;;5.20;99.90;;;;;;5132961;27;20504;-70
2022/04/12 02:23:40;;;;;;;11.05;5.75;;;5.10;99.90;;;;;;5114192;27;20573;-70
2022/04/12 02:26:05;;;;;;;7.15;5.30;;;5.10;99.90;;;;;;5132689;27;20046;-70
2022/04/12 02:28:31;;;;;;;7.00;5.32;;;5.10;99.90;;;;;;5133014;27;20389;-70
2022/04/12 02:30:57;;;;;;;5.60;4.45;;;5.10;99.90;;;;;;5131973;27;20039;-70
2022/04/12 02:33:22;;;;;;;10.00;6.30;;;5.10;99.90;;;;;;5132760;27;20031;-70
2022/04/12 02:35:48;;;;;;;7.25;5.05;;;5.10;99.90;;;;;;5132961;27;20085;-70
2022/04/12 02:38:14;;;;;;;5.72;4.80;;;5.10;99.90;;;;;;5113508;27;20051;-70
2022/04/12 02:40:45;;;;;;;8.90;5.45;;;5.10;99.90;;;;;;5132710;27;20126;-70
2022/04/12 02:43:11;;;;;;;7.90;4.93;;;5.10;99.90;;;;;;5131704;27;20043;-70
2022/04/12 02:45:36;;;;;;;6.53;4.72;;;5.00;99.90;;;;;;5132636;27;20039;-70
2022/04/12 02:48:02;;;;;;;7.43;5.30;;;5.00;99.90;;;;;;5114220;28;20188;-70
2022/04/12 02:50:28;;;;;;;10.23;6.15;;;5.00;99.90;;;;;;5113387;28;20483;-70
2022/04/12 02:52:54;;;;;;;9.35;5.28;;;5.00;99.90;;;;;;5132801;27;20058;-70
2022/04/12 02:55:20;;;;;;;8.68;5.72;;;5.00;99.90;;;;;;5114293;27;20051;-70
2022/04/12 02:57:45;;;;;;;8.23;5.28;;;5.00;99.90;;;;;;5131936;27;20092;-70
2022/04/12 03:00:11;;;;;;;8.25;6.03;;;5.00;99.90;;;;;;5114010;27;20067;-70
2022/04/12 03:02:36;;;;;;;7.03;4.93;;;4.90;99.90;;;;;;5138965;27;20065;-70
2022/04/12 03:05:02;;;;;;;12.75;6.13;;;5.00;99.90;;;;;;5138468;27;20129;-69
2022/04/12 03:07:28;;;;;;;7.35;5.45;;;5.00;99.90;;;;;;5139393;27;20436;-70
2022/04/12 03:09:53;;;;;;;6.90;5.30;;;5.00;99.90;;;;;;5139467;27;20469;-69
2022/04/12 03:12:19;;;;;;;8.35;6.55;;;5.00;99.90;;;;;;5120187;27;20047;-70
2022/04/12 03:14:44;;;;;;;9.23;5.30;;;5.00;99.90;;;;;;5139184;27;20500;-70
2022/04/12 03:17:10;;;;;;;6.03;5.28;;;4.90;99.90;;;;;;5120271;27;20058;-70
2022/04/12 03:19:36;;;;;;;7.63;5.28;;;5.00;99.90;;;;;;5119977;27;20035;-70
2022/04/12 03:22:01;;;;;;;11.80;5.90;;;4.90;99.90;;;;;;5120537;27;20442;-70
2022/04/12 03:24:30;;;;;;;14.60;6.88;;;5.00;99.90;;;;;;5139230;27;20067;-70
2022/04/12 03:26:56;;;;;;;9.55;4.97;;;5.00;99.90;;;;;;5119589;27;20489;-71
2022/04/12 03:29:22;;;;;;;8.52;5.72;;;4.80;99.90;;;;;;5139045;27;20084;-70
2022/04/12 03:31:48;;;;;;;7.25;6.03;;;4.80;99.90;;;;;;5121110;27;20057;-70
2022/04/12 03:34:13;;;;;;;10.98;6.28;;;4.80;99.90;;;;;;5138195;27;20039;-70
2022/04/12 03:36:39;;;;;;;9.20;6.25;;;4.80;99.90;;;;;;5120483;27;20055;-70
2022/04/12 03:39:04;;;;;;;10.15;6.63;;;4.80;99.90;;;;;;5120425;27;20047;-70
2022/04/12 03:41:31;;;;;;;10.80;7.28;;;4.80;99.90;;;;;;5119855;27;20058;-70
2022/04/12 03:43:56;;;;;;;8.48;7.45;;;4.80;99.90;;;;;;5120013;27;20050;-70
2022/04/12 03:46:22;;;;;;;11.48;6.65;;;4.80;99.90;;;;;;5135934;27;20401;-70
2022/04/12 03:48:47;;;;;;;11.85;7.25;;;4.80;99.90;;;;;;5109194;28;20120;-69
2022/04/12 03:51:13;;;;;;;9.90;6.65;;;4.80;99.90;;;;;;5124523;27;20127;-70
2022/04/12 03:53:39;;;;;;;11.25;7.25;;;4.80;99.90;;;;;;5119924;27;20069;-70
2022/04/12 03:56:09;;;;;;;9.35;7.70;;;4.80;99.90;;;;;;5138669;27;20043;-70
2022/04/12 03:58:38;;;;;;;8.18;6.05;;;4.80;99.90;;;;;;5138822;27;20427;-70
2022/04/12 04:01:05;;;;;;;8.52;6.00;;;4.80;99.90;;;;;;5137961;27;20043;-70
2022/04/12 04:03:31;;;;;;;9.20;6.50;;;4.80;99.90;;;;;;5113124;28;20066;-70
2022/04/12 04:05:57;;;;;;;8.38;6.68;;;4.80;99.90;;;;;;5118048;28;20085;-70
2022/04/12 04:08:22;;;;;;;11.13;6.97;;;4.70;99.90;;;;;;5099244;28;20047;-70
2022/04/12 04:10:48;;;;;;;14.13;7.97;;;4.80;99.90;;;;;;5099738;28;20061;-70
2022/04/12 04:13:15;;;;;;;8.77;6.70;;;4.70;99.90;;;;;;5096447;28;20138;-69
2022/04/12 04:15:40;;;;;;;9.52;7.25;;;4.80;99.90;;;;;;5114384;28;20122;-70
2022/04/12 04:18:09;;;;;;;8.77;7.22;;;4.70;99.90;;;;;;5114787;28;20120;-70
2022/04/12 04:20:35;;;;;;;9.35;7.50;;;4.70;99.90;;;;;;5115115;28;20402;-70
2022/04/12 04:23:02;;;;;;;11.90;8.10;;;4.70;99.90;;;;;;5113974;28;20040;-70
2022/04/12 04:25:28;;;;;;;10.05;7.05;;;4.70;99.90;;;;;;5114769;28;20406;-70
2022/04/12 04:27:54;;;;;;;12.98;8.25;;;4.70;99.90;;;;;;5116907;27;20505;-70
2022/04/12 04:30:20;;;;;;;12.02;8.90;;;4.70;99.90;;;;;;5134332;27;20478;-70
2022/04/12 04:32:46;;;;;;;8.88;7.60;;;4.70;99.90;;;;;;5135239;27;20050;-70
2022/04/12 04:35:12;;;;;;;9.68;7.72;;;4.70;99.90;;;;;;5101703;28;20043;-70
2022/04/12 04:37:49;;;;;;;15.00;9.13;;;4.70;99.90;;;;;;5113676;28;20443;-70
2022/04/12 04:40:19;;;;;;;10.68;8.95;;;4.70;99.90;;;;;;5093816;28;20525;-70
2022/04/12 04:42:45;;;;;;;11.98;8.23;;;4.70;99.90;;;;;;5093336;28;20119;-70
2022/04/12 04:45:12;;;;;;;12.27;9.10;;;4.70;99.90;;;;;;5093857;28;20440;-70
2022/04/12 04:47:53;;;;;;;11.57;8.57;;;4.70;99.90;;;;;;5093881;28;20044;-70
2022/04/12 04:50:21;;;;;;;10.93;8.40;;;4.70;99.90;;;;;;5108567;27;20054;-70
2022/04/12 04:52:46;;;;;;;9.93;8.32;;;4.70;99.90;;;;;;5134625;27;20181;-69
2022/04/12 04:55:13;;;;;;;11.13;7.80;;;4.70;99.90;;;;;;5112322;27;20071;-70
2022/04/12 04:57:42;;;;;;;15.43;8.43;;;4.70;99.90;;;;;;5104819;27;20423;-69
2022/04/12 05:00:17;;;;;;;12.25;8.60;;;4.60;99.90;;;;;;5108067;28;20040;-70
2022/04/12 05:02:48;;;;;;;11.05;8.10;;;4.70;99.90;;;;;;5114035;28;20425;-70
2022/04/12 05:05:14;;;;;;;10.10;8.07;;;4.70;99.90;;;;;;5101374;27;20477;-70
2022/04/12 05:07:43;;;;;;;10.73;7.82;;;4.60;99.90;;;;;;5125973;27;20039;-70
2022/04/12 05:10:13;;;;;;;11.68;7.97;;;4.70;99.90;;;;;;5104801;28;20490;-70
2022/04/12 05:12:39;;;;;;;8.07;6.97;;;4.60;99.90;;;;;;5092868;28;20036;-69
2022/04/12 05:15:05;;;;;;;13.15;8.52;;;4.70;99.90;;;;;;5075599;28;20047;-70
2022/04/12 05:17:31;;;;;;;10.82;7.20;;;4.70;99.90;;;;;;5115934;27;20058;-70
2022/04/12 05:19:56;;;;;;;12.60;7.32;;;4.70;99.90;;;;;;5130479;27;20044;-70
2022/04/12 05:22:23;;;;;;;11.48;7.80;;;4.70;99.90;;;;;;5115873;27;20054;-69
2022/04/12 05:24:49;;;;;;;10.98;8.95;;;4.80;99.90;;;;;;5121783;27;20497;-70
2022/04/12 05:27:15;;;;;;;8.40;6.55;;;4.90;99.90;;;;;;5095265;28;20047;-70
2022/04/12 05:29:41;;;;;;;15.05;8.52;;;4.90;99.90;;;;;;5123737;27;20412;-69
2022/04/12 05:32:09;;;;;;;13.52;8.65;;;5.00;99.90;;;;;;5132792;27;20047;-70
2022/04/12 05:34:39;;;;;;;10.95;7.95;;;5.10;99.90;;;;;;5133899;27;20050;-70
2022/04/12 05:37:04;;;;;;;10.68;8.48;;;5.20;99.90;;;;;;5115255;27;20581;-70
2022/04/12 05:39:31;;;;;;;8.90;7.43;;;5.30;99.90;;;;;;5133170;27;20253;-70
2022/04/12 05:42:00;;;;;;;8.95;7.57;;;5.40;99.90;;;;;;5133669;27;20117;-71
2022/04/12 05:44:27;;;;;;;14.52;9.27;;;5.40;99.90;;;;;;5127152;27;20390;-70
2022/04/12 05:46:52;;;;;;;15.07;9.98;;;5.50;99.90;;;;;;5084892;27;20053;-70
2022/04/12 05:49:18;;;;;;;10.60;7.88;;;5.60;99.90;;;;;;5126676;27;20528;-70
2022/04/12 05:51:43;;;;;;;9.55;7.47;;;5.70;99.90;;;;;;5094665;28;20047;-70
2022/04/12 05:54:09;;;;;;;13.75;8.10;;;5.80;99.90;;;;;;5093530;28;20448;-70
2022/04/12 05:56:34;;;;;;;10.75;8.05;;;5.80;99.90;;;;;;5094686;28;20402;-70
2022/04/12 05:59:00;;;;;;;9.07;7.57;;;5.90;99.90;;;;;;5089415;28;20486;-71
2022/04/12 06:01:28;;;;;;;14.52;7.65;;;6.00;99.90;;;;;;5091590;28;20047;-70
2022/04/12 06:03:54;;;;;;;8.88;7.53;;;6.00;99.90;;;;;;5096020;27;20044;-70
2022/04/12 06:06:19;;;;;;;11.57;8.13;;;6.90;99.90;;;;;;5129371;27;20451;-70
2022/04/12 06:08:45;;;;;;;13.02;9.43;;;6.20;99.90;;;;;;5104992;28;20040;-70
2022/04/12 06:11:10;;;;;;;9.70;7.38;;;6.20;99.90;;;;;;5097223;27;20134;-70
2022/04/12 06:13:36;;;;;;;13.35;8.32;;;6.30;99.90;;;;;;5114692;27;20492;-70
2022/04/12 06:16:02;;;;;;;10.52;8.15;;;6.40;99.90;;;;;;5132243;27;20047;-70
2022/04/12 06:18:27;;;;;;;12.23;8.25;;;6.40;99.90;;;;;;5120291;27;20050;-70
2022/04/12 06:20:55;;;;;;;14.05;9.32;;;6.50;99.90;;;;;;5112769;28;20496;-70
2022/04/12 06:23:21;;;;;;;9.52;7.60;;;6.50;99.90;;;;;;5093511;28;20178;-70
2022/04/12 06:25:47;;;;;;;11.50;8.75;;;6.60;99.90;;;;;;5112875;28;20495;-70
2022/04/12 06:28:12;;;;;;;10.30;7.68;;;6.60;99.90;;;;;;5108856;27;20461;-70
2022/04/12 06:30:38;;;;;;;9.68;7.35;;;6.70;99.90;;;;;;5114415;27;20416;-70
2022/04/12 06:33:03;;;;;;;9.68;8.48;;;6.80;99.90;;;;;;5132707;27;20035;-70
2022/04/12 06:35:29;;;;;;;11.40;7.90;;;6.80;99.90;;;;;;5131500;27;20087;-70
2022/04/12 06:37:56;;;;;;;10.30;7.70;;;6.90;99.90;;;;;;5112076;27;20040;-70
2022/04/12 06:40:22;;;;;;;12.10;8.30;;;7.00;99.90;;;;;;5094111;28;20081;-70
2022/04/12 06:42:49;;;;;;;10.48;8.18;;;7.00;99.90;;;;;;5111274;27;20406;-70
2022/04/12 06:45:15;;;;;;;14.13;8.90;;;7.10;99.90;;;;;;5101539;28;20126;-70
2022/04/12 06:47:41;;;;;;;12.70;8.13;;;7.20;99.90;;;;;;5114214;27;20476;-70
2022/04/12 06:50:09;;;;;;;9.98;8.25;;;7.20;99.90;;;;;;5120204;27;20477;-70
2022/04/12 06:52:35;;;;;;;13.65;8.48;;;7.30;99.90;;;;;;5132862;27;20035;-70
2022/04/12 06:55:01;;;;;;;12.40;9.02;;;7.30;99.90;;;;;;5097274;28;20055;-70
2022/04/12 06:57:36;;;;;;;14.73;8.05;;;7.30;99.90;;;;;;5072669;28;20048;-71
2022/04/12 07:00:05;;;;;;;9.93;8.15;;;7.40;99.90;;;;;;5081530;28;20040;-70
2022/04/12 07:02:31;;;;;;;13.77;7.80;;;7.40;99.90;;;;;;5086892;28;20055;-69
2022/04/12 07:04:56;;;;;;;10.48;8.30;;;7.40;99.90;;;;;;5084917;28;20111;-69
2022/04/12 07:07:22;;;;;;;9.77;7.78;;;7.50;99.90;;;;;;5086854;28;20083;-70
2022/04/12 07:09:51;;;;;;;8.75;6.78;;;7.50;99.90;;;;;;5083843;28;20051;-69
2022/04/12 07:12:16;;;;;;;12.88;8.55;;;7.50;99.90;;;;;;5090415;28;20044;-70
2022/04/12 07:14:52;;;;;;;11.38;8.30;;;7.60;99.90;;;;;;5091614;28;20105;-70
2022/04/12 07:17:20;;;;;;;16.33;8.52;;;7.60;99.90;;;;;;5072535;28;20051;-70
2022/04/12 07:19:45;;;;;;;10.70;8.32;;;7.70;99.90;;;;;;5091393;28;20036;-70
2022/04/12 07:22:11;;;;;;;10.57;8.40;;;7.70;99.90;;;;;;5090140;28;20055;-70
2022/04/12 07:24:36;;;;;;;11.23;8.27;;;7.80;99.90;;;;;;5090015;28;20040;-70
2022/04/12 07:27:02;;;;;;;10.90;8.20;;;7.90;99.90;;;;;;5101736;28;20133;-71
2022/04/12 07:29:29;;;;;;;14.40;9.18;;;8.00;99.90;;;;;;5114217;28;20088;-70
2022/04/12 07:31:55;;;;;;;18.90;9.55;;;8.10;99.90;;;;;;5105929;28;20040;-71
2022/04/12 07:34:21;;;;;;;12.70;8.88;;;8.20;99.90;;;;;;5088445;28;20047;-70
2022/04/12 07:36:53;;;;;;;10.82;8.13;;;8.30;99.90;;;;;;5087435;28;20055;-70
2022/04/12 07:39:23;;;;;;;10.13;8.02;;;8.40;99.90;;;;;;5116233;28;20052;-70
2022/04/12 07:41:49;;;;;;;11.80;8.38;;;8.60;99.90;;;;;;5117745;28;20050;-68
2022/04/12 07:44:16;;;;;;;16.30;8.60;;;8.70;99.90;;;;;;5113279;28;20062;-67
2022/04/12 07:46:42;;;;;;;14.32;8.02;;;8.80;99.90;;;;;;5112076;27;20050;-71
2022/04/12 07:49:08;;;;;;;10.40;7.85;;;8.90;99.90;;;;;;5134786;27;20035;-70
2022/04/12 07:51:34;;;;;;;12.98;8.85;;;9.00;99.90;;;;;;5135825;27;20047;-76
2022/04/12 07:54:01;;;;;;;9.23;6.95;;;9.10;99.90;;;;;;5116536;27;20135;-77
2022/04/12 07:56:27;;;;;;;10.20;8.32;;;9.30;99.90;;;;;;5135790;27;20054;-75
2022/04/12 07:58:53;;;;;;;13.70;8.13;;;9.40;99.90;;;;;;5140656;27;20057;-81
2022/04/12 08:01:19;;;;;;;10.05;7.63;;;9.50;99.90;;;;;;5129092;27;20071;-82
2022/04/12 08:03:44;;;;;;;12.23;9.57;;;9.50;99.90;;;;;;5081501;28;20058;-76
2022/04/12 08:06:10;;;;;;;13.38;8.98;;;9.70;99.90;;;;;;5115264;28;20078;-76
2022/04/12 08:08:36;;;;;;;12.70;8.82;;;10.30;99.90;;;;;;5114369;28;20046;-76
2022/04/12 08:11:02;;;;;;;11.27;8.18;;;9.90;99.90;;;;;;5091951;28;20560;-74
2022/04/12 08:13:27;;;;;;;11.23;8.02;;;10.00;99.90;;;;;;5094961;27;20053;-74
2022/04/12 08:15:53;;;;;;;10.60;8.27;;;10.10;99.90;;;;;;5100483;27;20055;-74
2022/04/12 08:18:19;;;;;;;15.05;8.60;;;10.20;99.90;;;;;;5079933;28;20059;-73
2022/04/12 08:20:47;;;;;;;12.43;8.45;;;10.30;99.90;;;;;;5102636;27;20086;-75
2022/04/12 08:23:13;;;;;;;10.48;7.95;;;10.40;99.90;;;;;;5132436;27;20046;-74
2022/04/12 08:25:38;;;;;;;11.43;8.90;;;10.60;99.90;;;;;;5109494;27;20504;-77
2022/04/12 08:28:04;;;;;;;14.35;8.40;;;10.60;99.90;;;;;;5115496;27;20146;-76
2022/04/12 08:30:29;;;;;;;10.82;8.30;;;10.70;99.90;;;;;;5134606;27;20039;-75
2022/04/12 08:32:55;;;;;;;9.45;8.07;;;10.80;99.90;;;;;;5116027;27;20035;-75
2022/04/12 08:35:21;;;;;;;9.80;8.15;;;10.80;99.90;;;;;;5108214;27;20478;-76
2022/04/12 08:37:46;;;;;;;9.25;7.35;;;11.00;99.90;;;;;;5101502;28;20040;-75
2022/04/12 08:40:13;;;;;;;12.63;8.82;;;11.20;99.90;;;;;;5086483;28;20066;-76
2022/04/12 08:42:40;;;;;;;9.45;7.05;;;11.90;99.90;;;;;;5107338;28;20494;-75
2022/04/12 08:45:06;;;;;;;9.75;7.85;;;11.30;99.90;;;;;;5086820;28;20108;-75
2022/04/12 08:47:36;;;;;;;11.00;8.10;;;11.30;99.90;;;;;;5095948;28;20058;-75
2022/04/12 08:50:04;;;;;;;9.45;7.75;;;11.30;99.90;;;;;;5087791;28;20078;-75
2022/04/12 08:52:30;;;;;;;10.02;7.82;;;11.40;99.90;;;;;;5080188;28;20520;-75
2022/04/12 08:54:55;;;;;;;9.40;7.85;;;11.40;99.90;;;;;;5097110;28;20090;-75
2022/04/12 08:57:21;;;;;;;13.85;8.52;;;11.40;99.90;;;;;;5098463;28;20047;-76
2022/04/12 08:59:48;;;;;;;9.57;7.43;;;11.40;99.90;;;;;;5113114;28;20114;-75
2022/04/12 09:02:13;;;;;;;9.40;7.68;;;11.40;99.90;;;;;;5113329;28;20498;-76
2022/04/12 09:04:39;;;;;;;10.15;7.63;;;11.50;99.90;;;;;;5105228;28;20076;-76
2022/04/12 09:07:10;;;;;;;15.38;8.48;;;11.60;99.90;;;;;;5074392;28;20093;-76
2022/04/12 09:09:38;;;;;;;8.90;7.15;;;11.60;99.90;;;;;;5076940;28;20039;-75
2022/04/12 09:12:10;;;;;;;10.90;7.38;;;11.70;99.90;;;;;;5091520;28;20067;-73
2022/04/12 09:14:56;;;;;;;13.23;8.57;;;11.70;99.90;;;;;;5098151;28;20035;-74
2022/04/12 09:17:36;;;;;;;10.27;7.53;;;11.80;99.90;;;;;;5085464;28;20047;-74
2022/04/12 09:20:04;;;;;;;9.85;8.48;;;11.90;99.90;;;;;;5091021;28;20052;-73
2022/04/12 09:22:31;;;;;;;8.68;7.80;;;12.00;99.90;;;;;;5072395;28;20113;-77
2022/04/12 09:24:59;;;;;;;11.38;8.07;;;12.10;99.90;;;;;;5091668;28;20044;-74
2022/04/12 09:27:27;;;;;;;13.32;8.43;;;12.20;99.90;;;;;;5073204;28;20051;-75
2022/04/12 09:30:02;;;;;;;9.68;7.75;;;12.30;99.90;;;;;;5092433;28;20040;-75
2022/04/12 09:32:30;;;;;;;11.93;8.23;;;12.40;99.90;;;;;;5074314;28;20048;-74
2022/04/12 09:34:56;;;;;;;14.27;7.90;;;12.60;99.90;;;;;;5092360;28;20040;-75
2022/04/12 09:37:30;;;;;;;12.25;7.70;;;12.80;99.90;;;;;;5091329;28;20138;-75
2022/04/12 09:39:58;;;;;;;10.68;8.88;;;12.90;99.90;;;;;;5090946;28;20555;-75
2022/04/12 09:42:50;;;;;;;8.25;7.25;;;13.00;99.90;;;;;;5091988;28;20051;-75
2022/04/12 09:45:23;;;;;;;9.70;8.18;;;13.10;99.90;;;;;;5091621;28;20048;-74
2022/04/12 09:47:51;;;;;;;8.88;7.10;;;13.20;99.90;;;;;;5081888;28;20613;-73
2022/04/12 09:50:20;;;;;;;11.07;8.55;;;13.30;99.90;;;;;;5100289;27;20241;-75
2022/04/12 09:52:55;;;;;;;11.27;8.10;;;13.40;99.90;;;;;;5109462;27;20059;-75
2022/04/12 09:55:37;;;;;;;9.85;7.88;;;13.50;99.90;;;;;;5105961;27;20039;-72
2022/04/12 09:58:05;;;;;;;11.00;7.82;;;13.60;99.90;;;;;;5107996;28;20043;-72
2022/04/12 10:00:32;;;;;;;10.70;8.80;;;13.60;99.90;;;;;;5080771;28;20059;-76
2022/04/12 10:03:02;;;;;;;13.43;8.52;;;13.70;99.90;;;;;;5099549;28;20100;-76
2022/04/12 10:05:28;;;;;;;14.25;8.30;;;13.70;99.90;;;;;;5096947;28;20048;-74
2022/04/12 10:07:57;;;;;;;9.75;8.25;;;13.80;99.90;;;;;;5076773;28;20422;-73
2022/04/12 10:10:24;;;;;;;11.65;8.82;;;13.90;99.90;;;;;;5095228;28;20043;-73
2022/04/12 10:12:50;;;;;;;13.27;8.05;;;14.00;99.90;;;;;;5102301;28;20097;-73
2022/04/12 10:15:16;;;;;;;14.27;8.50;;;14.00;99.90;;;;;;5072940;28;20044;-73
2022/04/12 10:17:42;;;;;;;8.23;6.93;;;14.10;99.90;;;;;;5072168;28;20046;-71
2022/04/12 10:20:10;;;;;;;10.23;8.18;;;14.20;99.90;;;;;;5090792;28;20040;-71
2022/04/12 10:22:36;;;;;;;11.70;8.57;;;14.20;99.90;;;;;;5091353;28;20046;-69
2022/04/12 10:25:03;;;;;;;8.75;7.45;;;14.20;99.90;;;;;;5092038;28;20413;-72
2022/04/12 10:27:31;;;;;;;9.93;8.68;;;14.40;99.90;;;;;;5091248;28;20040;-73
2022/04/12 10:30:15;;;;;;;10.48;8.23;;;14.50;99.90;;;;;;5075220;28;20040;-75
2022/04/12 10:33:08;;;;;;;11.43;7.72;;;14.70;99.90;;;;;;5110625;27;20433;-73
2022/04/12 10:35:48;;;;;;;9.63;8.18;;;14.80;99.90;;;;;;5109521;27;20097;-73
2022/04/12 10:38:19;;;;;;;13.10;9.07;;;14.80;99.90;;;;;;5130414;27;20061;-74
2022/04/12 10:40:49;;;;;;;10.82;8.40;;;14.80;99.90;;;;;;5123340;27;20550;-74
2022/04/12 10:43:34;;;;;;;11.55;7.80;;;14.90;99.90;;;;;;5103789;28;20048;-74
2022/04/12 10:46:02;;;;;;;9.57;7.75;;;15.00;99.90;;;;;;5093615;28;20043;-73
2022/04/12 10:48:29;;;;;;;18.42;9.00;;;15.00;99.90;;;;;;5107595;28;20040;-73
2022/04/12 10:50:58;;;;;;;12.80;7.95;;;15.10;99.90;;;;;;5111498;28;20054;-74
2022/04/12 10:53:39;;;;;;;10.30;7.95;;;15.30;99.90;;;;;;5093593;28;20444;-75
2022/04/12 10:56:16;;;;;;;9.38;7.95;;;15.50;99.90;;;;;;5093081;28;20054;-75
2022/04/12 10:58:45;;;;;;;10.43;7.63;;;15.60;99.90;;;;;;5109012;28;20051;-74
2022/04/12 11:01:27;;;;;;;11.98;8.57;;;15.60;99.90;;;;;;5085791;28;20194;-74
2022/04/12 11:03:53;;;;;;;;;;;15.60;99.90;;;;;;5093988;28;20047;-74
2022/04/12 11:06:27;;;;;;;10.50;8.15;;;15.60;99.10;;;;;;5100091;28;20274;-74
2022/04/12 11:08:54;;;;;;;12.27;7.80;;;15.60;98.90;;;;;;5095251;28;20044;-73
2022/04/12 11:11:21;;;;;;;13.50;8.88;;;15.60;98.50;;;;;;5102750;28;20044;-74
2022/04/12 11:13:47;;;;;;;10.98;8.95;;;15.70;99.50;;;;;;5082510;28;20410;-73
2022/04/12 11:16:16;;;;;;;13.15;8.15;;;15.70;99.40;;;;;;5072766;28;20127;-73
2022/04/12 11:18:59;;;;;;;9.98;8.63;;;15.80;99.30;;;;;;5082262;28;20054;-73
2022/04/12 11:21:59;;;;;;;13.93;8.23;;;15.80;97.50;;;;;;5073934;28;20048;-71
2022/04/12 11:24:25;;;;;;;11.50;7.53;;;15.80;98.00;;;;;;5104893;27;20401;-72
2022/04/12 11:27:08;;;;;;;12.93;8.52;;;15.80;98.60;;;;;;5086348;28;20046;-73
2022/04/12 11:29:35;;;;;;;11.25;8.57;;;15.90;99.50;;;;;;5086964;28;20417;-74
2022/04/12 11:32:02;;;;;;;8.40;7.53;;;15.90;97.60;;;;;;5103230;28;20486;-74
2022/04/12 11:34:29;;;;;;;9.48;7.95;;;16.00;98.00;;;;;;5112297;28;20047;-77
2022/04/12 11:37:07;;;;;;;11.65;7.63;;;16.10;98.10;;;;;;5114803;28;20050;-75
2022/04/12 11:39:37;;;;;;;9.23;8.15;;;16.10;98.30;;;;;;5114479;28;20097;-75
2022/04/12 11:42:05;;;;;;;13.85;7.90;;;16.20;99.80;;;;;;5103320;28;20076;-74
2022/04/12 11:44:31;;;;;;;9.77;6.95;;;16.30;99.50;;;;;;5086727;28;20058;-75
2022/04/12 11:47:02;;;;;;;11.98;8.80;;;16.30;98.90;;;;;;5114220;28;20035;-73
2022/04/12 11:49:30;;;;;;;10.55;8.82;;;16.30;97.60;;;;;;5094841;28;20060;-73
2022/04/12 11:51:59;;;;;;;14.27;8.68;;;16.30;98.10;;;;;;5088992;28;20054;-73
2022/04/12 11:54:30;;;;;;;10.68;9.05;;;16.30;98.40;;;;;;5106794;27;20045;-72
2022/04/12 11:57:00;;;;;;;10.07;9.07;;;16.30;97.70;;;;;;5095535;28;20047;-72
2022/04/12 11:59:27;;;;;;;10.48;8.52;;;16.30;96.20;;;;;;5094975;28;20044;-72
2022/04/12 12:01:59;;;;;;;10.27;8.82;;;16.20;97.20;;;;;;5096151;28;20046;-72
2022/04/12 12:04:35;;;;;;;14.30;8.55;;;16.30;98.20;;;;;;5096424;28;20046;-72
2022/04/12 12:07:03;;;;;;;9.55;8.25;;;16.40;98.30;;;;;;5114176;28;20036;-72
2022/04/12 12:09:29;;;;;;;12.55;9.02;;;16.50;99.20;;;;;;5115069;28;20055;-72
2022/04/12 12:12:11;;;;;;;9.90;7.65;;;16.60;99.20;;;;;;5114697;28;20085;-72
2022/04/12 12:14:39;;;;;;;10.97;9.07;;;16.70;98.50;;;;;;5113202;28;20027;-72
2022/04/12 12:17:08;;;;;;;10.52;9.15;;;16.80;98.80;;;;;;5080345;28;20048;-72
2022/04/12 12:19:38;;;;;;;14.32;9.60;;;16.80;98.10;;;;;;5094247;28;20403;-72
2022/04/12 12:22:08;;;;;;;11.48;9.15;;;16.80;97.90;;;;;;5103273;28;20057;-71
2022/04/12 12:24:37;;;;;;;10.30;8.63;;;16.80;97.60;;;;;;5091810;28;20047;-72
2022/04/12 12:27:04;;;;;;;11.77;9.07;;;16.80;98.60;;;;;;5098590;28;20129;-72
2022/04/12 12:29:35;;;;;;;11.23;9.23;;;16.90;99.10;;;;;;5078666;28;20046;-71
2022/04/12 12:32:00;;;;;;;12.52;8.88;;;17.10;99.50;;;;;;5093774;28;20051;-73
2022/04/12 12:34:33;;;;;;;8.98;8.00;;;17.20;99.10;;;;;;5079971;28;20032;-72
2022/04/12 12:37:06;;;;;;;10.35;8.52;;;17.30;98.70;;;;;;5095853;28;20136;-72
2022/04/12 12:39:39;;;;;;;8.63;7.50;;;17.30;96.50;;;;;;5114312;28;20048;-72
2022/04/12 12:42:05;;;;;;;11.82;8.13;;;17.30;97.80;;;;;;5105607;28;20079;-73
2022/04/12 12:44:36;;;;;;;9.80;7.65;;;17.30;97.10;;;;;;5095103;28;20401;-72
2022/04/12 12:47:04;;;;;;;8.95;7.55;;;17.30;96.00;;;;;;5075706;28;20113;-72
2022/04/12 12:49:38;;;;;;;10.88;7.85;;;17.30;97.70;;;;;;5093225;28;20143;-72
2022/04/12 12:52:07;;;;;;;10.07;7.40;;;17.30;96.90;;;;;;5093684;28;20611;-72
2022/04/12 12:54:33;;;;;;;11.15;8.35;;;17.40;97.10;;;;;;5075868;28;20044;-72